createdAt,value
2019-01-26T00:01:24.902Z,36.60
2019-01-26T00:04:10.392Z,36.60
2019-01-26T00:07:20.143Z,36.60
2019-01-26T00:10:15.468Z,36.60
2019-01-26T00:13:29.795Z,36.60
2019-01-26T00:16:26.192Z,36.50
2019-01-26T00:19:20.757Z,36.50
2019-01-26T00:22:08.389Z,36.50
2019-01-26T00:25:07.525Z,36.50
2019-01-26T00:27:54.160Z,36.50
2019-01-26T00:30:43.492Z,36.50
2019-01-26T00:33:43.246Z,36.40
2019-01-26T00:36:37.989Z,36.40
2019-01-26T00:39:28.534Z,36.40
2019-01-26T00:42:12.315Z,36.40
2019-01-26T00:44:57.230Z,36.30
2019-01-26T00:47:48.412Z,36.40
2019-01-26T00:50:38.366Z,36.30
2019-01-26T00:53:33.328Z,36.30
2019-01-26T00:56:34.558Z,36.30
2019-01-26T00:59:27.914Z,36.30
2019-01-26T01:02:13.129Z,36.30
2019-01-26T01:04:54.344Z,36.30
2019-01-26T01:07:42.970Z,36.10
2019-01-26T01:10:41.436Z,36.20
2019-01-26T01:13:27.174Z,36.30
2019-01-26T01:16:27.476Z,36.20
2019-01-26T01:19:04.366Z,36.20
2019-01-26T01:21:48.007Z,36.20
2019-01-26T01:24:28.932Z,36.30
2019-01-26T01:27:15.373Z,36.20
2019-01-26T01:30:44.118Z,36.20
2019-01-26T01:33:28.474Z,36.20
2019-01-26T01:36:34.043Z,36.20
2019-01-26T01:40:07.477Z,36.20
2019-01-26T01:43:14.176Z,36.20
2019-01-26T01:46:03.613Z,36.10
2019-01-26T01:48:49.508Z,36.20
2019-01-26T01:51:50.120Z,36.10
2019-01-26T01:54:30.817Z,36.10
2019-01-26T01:57:46.488Z,36.10
2019-01-26T02:00:22.920Z,36.10
2019-01-26T02:03:30.372Z,36.10
2019-01-26T02:06:35.137Z,36.10
2019-01-26T02:09:21.038Z,36.10
2019-01-26T02:12:23.724Z,36.10
2019-01-26T02:15:30.370Z,36.00
2019-01-26T02:18:14.978Z,36.10
2019-01-26T02:21:01.528Z,36.10
2019-01-26T02:24:05.400Z,36.00
2019-01-26T02:27:00.642Z,36.00
2019-01-26T02:29:58.856Z,36.00
2019-01-26T02:32:45.840Z,36.10
2019-01-26T02:35:49.078Z,36.00
2019-01-26T02:38:33.723Z,36.00
2019-01-26T02:42:04.559Z,36.00
2019-01-26T02:43:59.090Z,36.00
2019-01-26T02:46:58.115Z,36.10
2019-01-26T02:49:44.695Z,36.00
2019-01-26T02:52:49.590Z,36.00
2019-01-26T02:55:39.744Z,35.90
2019-01-26T02:58:29.821Z,36.00
2019-01-26T03:01:17.710Z,36.00
2019-01-26T03:04:27.021Z,36.60
2019-01-26T03:07:08.414Z,35.90
2019-01-26T03:10:02.708Z,35.90
2019-01-26T03:13:05.988Z,35.90
2019-01-26T03:16:06.319Z,36.00
2019-01-26T03:19:02.037Z,35.90
2019-01-26T03:22:00.284Z,35.90
2019-01-26T03:25:13.233Z,35.60
2019-01-26T03:28:01.567Z,35.90
2019-01-26T03:31:02.116Z,35.90
2019-01-26T03:33:59.824Z,36.20
2019-01-26T03:37:05.423Z,35.90
2019-01-26T03:39:49.467Z,35.90
2019-01-26T03:42:58.759Z,35.90
2019-01-26T03:45:48.117Z,35.90
2019-01-26T03:48:30.260Z,35.90
2019-01-26T03:51:40.843Z,35.90
2019-01-26T03:54:36.450Z,35.90
2019-01-26T03:58:11.899Z,35.90
2019-01-26T04:24:14.367Z,35.80
2019-01-26T04:38:47.974Z,35.80
2019-01-26T04:41:55.889Z,36.10
2019-01-26T04:44:36.608Z,36.10
2019-01-26T04:47:19.518Z,36.00
2019-01-26T04:49:55.458Z,36.50
2019-01-26T04:52:40.628Z,36.90
2019-01-26T04:55:20.792Z,36.70
2019-01-26T04:58:06.465Z,36.60
2019-01-26T05:00:52.602Z,36.60
2019-01-26T05:03:29.987Z,36.50
2019-01-26T05:06:09.089Z,36.60
2019-01-26T05:08:47.184Z,36.60
2019-01-26T05:11:39.906Z,36.80
2019-01-26T05:27:30.192Z,37.50
2019-01-26T05:30:47.194Z,37.50
2019-01-26T05:35:49.602Z,37.50
2019-01-26T05:37:50.196Z,37.70
2019-01-26T05:40:26.695Z,37.90
2019-01-26T05:43:03.818Z,37.90
2019-01-26T05:45:40.725Z,37.90
2019-01-26T05:48:16.756Z,37.90
2019-01-26T05:50:53.185Z,37.90
2019-01-26T05:53:29.485Z,37.90
2019-01-26T05:56:05.576Z,38.00
2019-01-26T05:58:41.396Z,37.60
2019-01-26T06:01:17.796Z,38.30
2019-01-26T06:03:54.117Z,38.30
2019-01-26T06:06:30.648Z,38.30
2019-01-26T06:09:08.996Z,38.30
2019-01-26T06:11:45.660Z,38.30
2019-01-26T06:14:22.232Z,38.30
2019-01-26T06:16:58.991Z,38.20
2019-01-26T06:19:35.097Z,38.30
2019-01-26T06:22:11.390Z,38.30
2019-01-26T06:24:48.055Z,38.30
2019-01-26T06:27:24.825Z,38.30
2019-01-26T06:30:01.753Z,38.40
2019-01-26T06:32:38.389Z,38.50
2019-01-26T06:35:14.350Z,38.50
2019-01-26T06:37:50.992Z,38.40
2019-01-26T06:40:27.896Z,38.50
2019-01-26T06:43:04.873Z,38.60
2019-01-26T06:45:41.108Z,38.60
2019-01-26T06:48:17.727Z,38.60
2019-01-26T06:50:54.172Z,38.60
2019-01-26T06:53:30.224Z,38.50
2019-01-26T06:56:06.301Z,38.60
2019-01-26T06:58:42.345Z,38.70
2019-01-26T07:01:18.081Z,38.70
2019-01-26T07:03:54.817Z,38.80
2019-01-26T07:06:38.414Z,38.80
2019-01-26T07:09:14.625Z,38.80
2019-01-26T07:11:50.929Z,39.00
2019-01-26T07:14:28.064Z,38.90
2019-01-26T07:17:04.824Z,39.00
2019-01-26T07:19:40.915Z,39.30
2019-01-26T07:22:17.086Z,39.20
2019-01-26T07:24:53.460Z,39.00
2019-01-26T07:27:29.368Z,39.20
2019-01-26T07:30:08.645Z,39.20
2019-01-26T07:32:44.834Z,39.30
2019-01-26T07:35:21.830Z,39.50
2019-01-26T07:37:57.846Z,39.40
2019-01-26T07:40:34.447Z,39.30
2019-01-26T07:43:10.553Z,39.20
2019-01-26T07:45:47.007Z,39.20
2019-01-26T07:48:24.216Z,39.00
2019-01-26T07:51:01.216Z,38.90
2019-01-26T07:53:37.587Z,38.80
2019-01-26T07:56:13.861Z,38.80
2019-01-26T07:58:49.938Z,38.70
2019-01-26T08:01:27.168Z,38.80
2019-01-26T08:04:05.194Z,38.70
2019-01-26T08:06:41.365Z,38.70
2019-01-26T08:09:17.327Z,38.70
2019-01-26T08:11:53.812Z,38.80
2019-01-26T08:14:29.719Z,39.00
2019-01-26T08:17:05.605Z,39.00
2019-01-26T08:19:42.615Z,39.00
2019-01-26T08:22:19.260Z,38.90
2019-01-26T08:24:55.525Z,38.80
2019-01-26T08:27:31.247Z,38.80
2019-01-26T08:30:12.759Z,38.70
2019-01-26T08:32:50.575Z,38.70
2019-01-26T08:35:29.827Z,38.80
2019-01-26T08:38:06.301Z,38.80
2019-01-26T08:40:42.385Z,38.90
2019-01-26T08:43:23.131Z,39.00
2019-01-26T08:45:59.704Z,38.80
2019-01-26T08:48:35.493Z,38.80
2019-01-26T08:51:12.492Z,38.70
2019-01-26T08:53:48.553Z,38.90
2019-01-26T08:56:25.536Z,38.90
2019-01-26T08:59:02.549Z,38.90
2019-01-26T09:01:38.401Z,38.80
2019-01-26T09:04:22.902Z,38.80
2019-01-26T09:07:02.083Z,38.70
2019-01-26T09:09:41.197Z,38.60
2019-01-26T09:12:18.488Z,38.70
2019-01-26T09:14:55.321Z,38.70
2019-01-26T09:17:32.429Z,38.60
2019-01-26T09:23:38.099Z,38.60
2019-01-26T09:26:36.130Z,38.60
2019-01-26T09:29:42.645Z,38.50
2019-01-26T09:32:27.960Z,38.50
2019-01-26T09:35:11.824Z,38.50
2019-01-26T09:37:48.715Z,38.40
2019-01-26T09:40:27.798Z,38.40
2019-01-26T09:43:11.621Z,38.40
2019-01-26T09:46:05.559Z,38.40
2019-01-26T09:48:47.652Z,38.40
2019-01-26T09:51:34.507Z,38.40
2019-01-26T09:54:12.292Z,38.40
2019-01-26T09:57:04.036Z,38.40
2019-01-26T09:59:48.553Z,38.40
2019-01-26T10:02:27.212Z,38.40
2019-01-26T10:05:09.835Z,38.30
2019-01-26T10:07:48.672Z,38.40
2019-01-26T10:10:25.933Z,38.50
2019-01-26T10:13:03.125Z,36.50
2019-01-26T10:15:40.322Z,36.30
2019-01-26T10:18:16.810Z,35.80
2019-01-26T10:20:59.589Z,36.00
2019-01-26T10:23:37.631Z,36.20
2019-01-26T10:26:21.834Z,36.40
2019-01-26T10:28:58.884Z,36.70
2019-01-26T10:31:34.856Z,36.90
2019-01-26T10:34:11.411Z,37.10
2019-01-26T10:36:59.606Z,37.20
2019-01-26T10:39:36.637Z,37.20
2019-01-26T10:42:25.549Z,37.30
2019-01-26T10:45:04.067Z,37.20
2019-01-26T10:47:41.076Z,37.20
2019-01-26T10:50:17.701Z,37.20
2019-01-26T10:52:55.253Z,37.20
2019-01-26T10:55:36.942Z,37.20
2019-01-26T10:58:17.432Z,37.30
2019-01-26T11:00:53.460Z,37.40
2019-01-26T11:03:31.011Z,37.50
2019-01-26T11:06:06.875Z,37.30
2019-01-26T11:08:43.352Z,37.60
2019-01-26T11:11:21.377Z,37.70
2019-01-26T11:14:10.307Z,37.70
2019-01-26T11:16:42.949Z,37.60
2019-01-26T11:19:19.409Z,37.60
2019-01-26T11:21:55.971Z,37.60
2019-01-26T11:24:33.677Z,37.60
2019-01-26T11:27:14.555Z,37.70
2019-01-26T11:29:51.460Z,37.80
2019-01-26T11:32:30.293Z,37.80
2019-01-26T11:35:08.521Z,37.70
2019-01-26T11:37:46.487Z,37.80
2019-01-26T11:40:24.504Z,37.80
2019-01-26T11:43:00.834Z,37.90
2019-01-26T11:46:02.554Z,37.90
2019-01-26T11:48:44.965Z,37.80
2019-01-26T11:51:31.394Z,37.80
2019-01-26T11:54:08.138Z,37.90
2019-01-26T11:57:09.309Z,37.80
2019-01-26T11:59:46.811Z,37.90
2019-01-26T12:02:30.044Z,37.80
2019-01-26T12:05:30.452Z,37.80
2019-01-26T12:08:06.449Z,37.80
2019-01-26T12:10:42.360Z,37.80
2019-01-26T12:13:19.032Z,37.80
2019-01-26T12:15:57.392Z,37.80
2019-01-26T12:18:33.601Z,37.80
2019-01-26T12:21:11.248Z,37.80
2019-01-26T12:23:50.021Z,37.80
2019-01-26T12:26:32.547Z,37.80
2019-01-26T12:29:13.792Z,37.80
2019-01-26T12:32:02.498Z,37.70
2019-01-26T12:34:40.965Z,37.70
2019-01-26T12:37:20.682Z,37.70
2019-01-26T12:40:21.638Z,37.80
2019-01-26T12:43:02.908Z,37.70
2019-01-26T12:45:39.168Z,37.70
2019-01-26T12:48:21.640Z,37.70
2019-01-26T12:51:10.551Z,37.70
2019-01-26T12:54:20.271Z,37.70
2019-01-26T12:57:22.495Z,37.70
2019-01-26T13:00:45.831Z,37.60
2019-01-26T13:06:21.268Z,37.60
2019-01-26T13:09:11.176Z,37.70
2019-01-26T13:11:56.072Z,37.60
2019-01-26T13:14:37.600Z,37.70
2019-01-26T13:17:24.648Z,37.60
2019-01-26T13:20:05.036Z,37.60
2019-01-26T13:22:49.201Z,37.60
2019-01-26T13:25:31.629Z,37.70
2019-01-26T13:28:11.221Z,37.60
2019-01-26T13:30:49.926Z,37.60
2019-01-26T13:33:31.044Z,37.60
2019-01-26T13:36:13.514Z,37.60
2019-01-26T13:38:54.661Z,37.60
2019-01-26T13:41:44.748Z,37.60
2019-01-26T13:44:21.058Z,37.60
2019-01-26T13:47:02.084Z,37.60
2019-01-26T13:49:44.163Z,37.60
2019-01-26T13:52:25.557Z,37.60
2019-01-26T13:55:03.851Z,37.60
2019-01-26T13:57:48.417Z,37.60
2019-01-26T14:00:27.678Z,37.50
2019-01-26T14:03:09.749Z,37.60
2019-01-26T14:05:46.337Z,37.60
2019-01-26T14:08:22.655Z,37.50
2019-01-26T14:11:00.656Z,37.60
2019-01-26T14:13:37.435Z,37.60
2019-01-26T14:16:14.328Z,37.60
2019-01-26T14:18:50.725Z,37.50
2019-01-26T14:21:27.403Z,37.60
2019-01-26T14:24:03.619Z,37.50
2019-01-26T14:26:39.796Z,37.50
2019-01-26T14:29:15.632Z,37.50
2019-01-26T14:31:52.614Z,37.50
2019-01-26T14:34:28.949Z,37.50
2019-01-26T14:37:05.480Z,37.50
2019-01-26T14:39:41.272Z,37.50
2019-01-26T14:42:17.771Z,37.50
2019-01-26T14:44:54.220Z,37.50
2019-01-26T14:47:30.433Z,37.50
2019-01-26T14:50:08.332Z,37.50
2019-01-26T14:52:43.998Z,37.60
2019-01-26T14:55:22.171Z,37.50
2019-01-26T14:57:59.944Z,37.50
2019-01-26T15:00:36.182Z,37.50
2019-01-26T15:03:12.956Z,37.50
2019-01-26T15:05:49.609Z,37.50
2019-01-26T15:08:26.205Z,37.50
2019-01-26T15:11:02.347Z,37.50
2019-01-26T15:13:39.553Z,37.50
2019-01-26T15:16:16.245Z,37.50
2019-01-26T15:18:52.597Z,37.50
2019-01-26T15:21:28.753Z,37.50
2019-01-26T15:24:05.705Z,37.60
2019-01-26T15:26:42.176Z,37.50
2019-01-26T15:29:19.350Z,37.50
2019-01-26T15:31:55.573Z,37.60
2019-01-26T15:34:31.977Z,37.60
2019-01-26T15:37:08.396Z,37.60
2019-01-26T15:39:44.776Z,37.70
2019-01-26T15:42:21.032Z,37.60
2019-01-26T15:44:58.285Z,37.70
2019-01-26T15:47:34.717Z,37.70
2019-01-26T15:50:13.234Z,37.70
2019-01-26T15:52:49.980Z,37.80
2019-01-26T15:55:26.159Z,37.70
2019-01-26T15:58:01.955Z,37.90
2019-01-26T16:00:44.054Z,38.00
2019-01-26T16:03:20.252Z,38.20
2019-01-26T16:05:56.745Z,38.30
2019-01-26T16:08:32.843Z,38.40
2019-01-26T16:11:09.975Z,38.50
2019-01-26T16:13:46.567Z,38.60
2019-01-26T16:16:22.840Z,38.70
2019-01-26T16:18:59.193Z,38.80
2019-01-26T16:21:34.984Z,38.80
2019-01-26T16:24:11.608Z,39.00
2019-01-26T16:26:47.474Z,39.20
2019-01-26T16:29:23.787Z,39.30
2019-01-26T16:32:00.278Z,39.90
2019-01-26T16:34:36.880Z,39.60
2019-01-26T16:37:13.074Z,39.50
2019-01-26T16:39:50.011Z,39.60
2019-01-26T16:42:26.216Z,39.70
2019-01-26T16:45:03.255Z,39.70
2019-01-26T16:47:40.117Z,39.80
2019-01-26T16:50:27.564Z,39.70
2019-01-26T16:53:00.621Z,39.60
2019-01-26T16:55:36.891Z,39.50
2019-01-26T16:58:13.577Z,39.50
2019-01-26T17:00:52.489Z,39.50
2019-01-26T17:03:28.677Z,39.50
2019-01-26T17:06:04.904Z,39.50
2019-01-26T17:08:41.614Z,39.50
2019-01-26T17:11:18.352Z,39.40
2019-01-26T17:13:55.371Z,39.50
2019-01-26T17:16:32.019Z,39.30
2019-01-26T17:19:07.784Z,39.20
2019-01-26T17:21:43.413Z,39.20
2019-01-26T17:24:19.454Z,39.20
2019-01-26T17:26:55.975Z,39.20
2019-01-26T17:29:32.484Z,39.10
2019-01-26T17:32:08.769Z,39.00
2019-01-26T17:34:45.124Z,39.20
2019-01-26T17:37:21.736Z,39.00
2019-01-26T17:39:58.326Z,39.00
2019-01-26T17:42:36.532Z,39.00
2019-01-26T17:45:15.815Z,39.00
2019-01-26T17:47:54.487Z,39.00
2019-01-26T17:50:32.636Z,38.90
2019-01-26T17:53:10.730Z,39.00
2019-01-26T17:55:47.457Z,39.00
2019-01-26T17:58:24.418Z,38.90
2019-01-26T18:01:01.720Z,38.90
2019-01-26T18:03:39.701Z,38.90
2019-01-26T18:06:16.481Z,38.90
2019-01-26T18:08:52.340Z,38.80
2019-01-26T18:11:28.817Z,38.90
2019-01-26T18:14:04.717Z,38.80
2019-01-26T18:16:40.768Z,38.80
2019-01-26T18:19:17.282Z,38.70
2019-01-26T18:21:53.649Z,38.80
2019-01-26T18:24:30.052Z,38.70
2019-01-26T18:27:06.008Z,38.80
2019-01-26T18:29:43.262Z,38.70
2019-01-26T18:32:20.949Z,38.70
2019-01-26T18:34:57.921Z,38.70
2019-01-26T18:37:34.633Z,38.70
2019-01-26T18:40:15.052Z,38.80
2019-01-26T18:42:51.112Z,38.80
2019-01-26T18:45:27.522Z,38.70
2019-01-26T18:48:03.929Z,38.80
2019-01-26T18:50:42.724Z,38.70
2019-01-26T18:53:19.169Z,38.80
2019-01-26T18:55:55.533Z,38.80
2019-01-26T18:58:31.217Z,38.80
2019-01-26T19:01:07.667Z,38.80
2019-01-26T19:04:06.270Z,38.90
2019-01-26T19:06:42.598Z,38.90
2019-01-26T19:09:18.452Z,38.90
2019-01-26T19:11:55.323Z,39.00
2019-01-26T19:14:32.143Z,39.00
2019-01-26T19:17:08.472Z,39.10
2019-01-26T19:19:45.342Z,39.20
2019-01-26T19:22:21.418Z,39.20
2019-01-26T19:24:57.269Z,39.40
2019-01-26T19:27:34.346Z,39.50
2019-01-26T19:30:13.106Z,39.30
2019-01-26T19:32:49.970Z,39.40
2019-01-26T19:35:26.851Z,39.30
2019-01-26T19:38:03.493Z,39.30
2019-01-26T19:40:40.773Z,39.30
2019-01-26T19:43:19.058Z,39.30
2019-01-26T19:45:56.592Z,39.30
2019-01-26T19:48:32.376Z,39.20
2019-01-26T19:51:09.988Z,39.20
2019-01-26T19:53:46.724Z,39.10
2019-01-26T19:56:23.728Z,39.20
2019-01-26T19:58:59.917Z,39.20
2019-01-26T20:01:36.729Z,39.10
2019-01-26T20:04:13.291Z,39.10
2019-01-26T20:06:49.057Z,39.20
2019-01-26T20:09:25.063Z,39.20
2019-01-26T20:12:01.063Z,39.20
2019-01-26T20:14:37.703Z,39.10
2019-01-26T20:17:14.095Z,39.10
2019-01-26T20:19:50.017Z,39.10
2019-01-26T20:22:26.605Z,39.10
2019-01-26T20:25:02.945Z,39.10
2019-01-26T20:27:39.584Z,39.00
2019-01-26T20:30:19.263Z,39.00
2019-01-26T20:32:55.559Z,39.00
2019-01-26T20:35:31.885Z,39.00
2019-01-26T20:38:08.003Z,38.90
2019-01-26T20:40:44.388Z,39.00
2019-01-26T20:43:21.341Z,38.90
2019-01-26T20:45:58.145Z,38.90
2019-01-26T20:48:34.493Z,38.90
2019-01-26T20:51:11.150Z,38.90
2019-01-26T20:53:47.749Z,38.90
2019-01-26T20:56:23.952Z,38.80
2019-01-26T20:59:00.038Z,38.80
2019-01-26T21:01:36.865Z,38.80
2019-01-26T21:04:13.897Z,38.80
2019-01-26T21:06:50.088Z,38.90
2019-01-26T21:09:25.783Z,38.80
2019-01-26T21:12:03.271Z,38.80
2019-01-26T21:14:39.283Z,38.80
2019-01-26T21:17:15.677Z,38.70
2019-01-26T21:19:52.595Z,38.80
2019-01-26T21:22:28.997Z,38.70
2019-01-26T21:25:05.774Z,38.80
2019-01-26T21:27:42.604Z,38.70
2019-01-26T21:30:21.812Z,38.80
2019-01-26T21:32:58.875Z,38.80
2019-01-26T21:35:34.804Z,38.80
2019-01-26T21:38:11.679Z,39.40
2019-01-26T21:40:48.469Z,39.90
2019-01-26T21:43:24.809Z,40.10
2019-01-26T21:46:00.885Z,40.30
2019-01-26T21:48:37.878Z,40.40
2019-01-26T21:51:14.359Z,40.50
2019-01-26T21:53:51.084Z,40.50
2019-01-26T21:56:26.743Z,40.70
2019-01-26T21:59:03.233Z,40.60
2019-01-26T22:01:39.610Z,40.70
2019-01-26T22:04:16.499Z,40.60
2019-01-26T22:06:52.884Z,39.80
2019-01-26T22:09:29.293Z,38.90
2019-01-26T22:12:05.915Z,38.90
2019-01-26T22:14:42.132Z,38.70
2019-01-26T22:17:18.619Z,38.30
2019-01-26T22:19:55.273Z,38.40
2019-01-26T22:22:31.137Z,38.30
2019-01-26T22:25:10.577Z,38.00
2019-01-26T22:27:46.756Z,37.60
2019-01-26T22:30:28.382Z,37.70
2019-01-26T22:33:05.197Z,37.60
2019-01-26T22:35:41.988Z,37.70
2019-01-26T22:38:18.357Z,37.40
2019-01-26T22:40:54.977Z,37.40
2019-01-26T22:43:31.264Z,37.10
2019-01-26T22:46:08.248Z,37.20
2019-01-26T22:48:44.405Z,37.50
2019-01-26T22:51:20.539Z,37.20
2019-01-26T22:53:56.197Z,37.40
2019-01-26T22:56:32.601Z,37.20
2019-01-26T22:59:09.555Z,37.10
2019-01-26T23:01:46.592Z,37.00
2019-01-26T23:04:58.413Z,36.90
2019-01-26T23:07:53.680Z,37.20
2019-01-26T23:11:07.054Z,37.10
2019-01-26T23:14:10.772Z,37.00
2019-01-26T23:17:24.564Z,37.20
2019-01-26T23:21:00.371Z,37.00
2019-01-26T23:24:26.465Z,37.00
2019-01-26T23:27:56.901Z,36.90
2019-01-26T23:30:58.341Z,38.30
2019-01-26T23:33:35.033Z,37.70
2019-01-26T23:36:11.347Z,37.50
2019-01-26T23:38:47.521Z,37.30
2019-01-26T23:41:23.806Z,37.20
2019-01-26T23:44:01.358Z,37.20
2019-01-26T23:46:37.234Z,37.00
2019-01-26T23:49:13.465Z,36.80
2019-01-26T23:51:49.369Z,37.10
2019-01-26T23:54:37.368Z,36.90
2019-01-26T23:57:13.941Z,37.10
2019-01-26T23:59:50.252Z,37.10
